Time;durP1;ratioP1;P1;durP2;ratioP2;P2;SDS_P1;SDS_P2;PMS_P1;PMS_P2;Temp;Humidity;BMP_temperature;BMP_pressure;BME280_temperature;BME280_humidity;BME280_pressure;Samples;Min_cycle;Max_cycle;Signal;HPM_P1;HPM_P2
2022/09/16 00:00:25;;;;;;;0.40;0.40;;;10.40;99.90;;;;;;5070889;28;20040;-75
2022/09/16 00:02:51;;;;;;;0.43;0.43;;;10.40;99.90;;;;;;5052580;28;20036;-76
2022/09/16 00:05:19;;;;;;;0.43;0.43;;;10.40;99.90;;;;;;5053834;28;20067;-74
2022/09/16 00:07:45;;;;;;;0.40;0.40;;;10.50;99.90;;;;;;5070479;28;20045;-74
2022/09/16 00:10:12;;;;;;;0.50;0.50;;;10.50;99.90;;;;;;5070695;28;20146;-77
2022/09/16 00:12:43;;;;;;;0.40;0.40;;;10.50;99.90;;;;;;5062140;28;20559;-74
2022/09/16 00:15:10;;;;;;;;;;;10.60;99.90;;;;;;5057400;28;20040;-76
2022/09/16 00:17:37;;;;;;;0.40;0.40;;;10.60;99.90;;;;;;5050387;28;19962;-76
2022/09/16 00:20:04;;;;;;;0.50;0.50;;;10.70;99.90;;;;;;5050950;28;20083;-77
2022/09/16 00:22:29;;;;;;;0.47;0.47;;;10.80;99.90;;;;;;5072034;28;20072;-76
2022/09/16 00:24:55;;;;;;;0.30;0.30;;;10.80;99.90;;;;;;5067933;28;20512;-73
2022/09/16 00:27:21;;;;;;;0.50;0.50;;;10.80;99.90;;;;;;5072009;28;20135;-74
2022/09/16 00:29:46;;;;;;;0.35;0.35;;;10.70;99.90;;;;;;5069931;28;20075;-75
2022/09/16 00:32:12;;;;;;;0.40;0.40;;;10.60;99.90;;;;;;5070247;28;20423;-76
2022/09/16 00:34:38;;;;;;;0.50;0.50;;;10.60;99.90;;;;;;5068226;28;20048;-74
2022/09/16 00:37:08;;;;;;;0.50;0.50;;;10.60;99.90;;;;;;5051850;28;20048;-75
2022/09/16 00:39:36;;;;;;;0.45;0.45;;;10.60;99.90;;;;;;5066589;28;20044;-75
2022/09/16 00:42:03;;;;;;;0.50;0.50;;;10.60;99.90;;;;;;5069943;28;20060;-76
2022/09/16 00:44:50;;;;;;;0.40;0.40;;;10.60;99.90;;;;;;5049693;28;20041;-73
2022/09/16 00:47:25;;;;;;;0.60;0.60;;;10.60;99.90;;;;;;5052396;28;20044;-73
2022/09/16 00:49:55;;;;;;;0.47;0.47;;;10.50;99.90;;;;;;5052162;28;20051;-75
2022/09/16 00:52:21;;;;;;;0.40;0.40;;;10.40;99.90;;;;;;5054845;28;20040;-74
2022/09/16 00:54:47;;;;;;;0.40;0.40;;;10.40;99.90;;;;;;5071152;28;20114;-73
2022/09/16 00:57:14;;;;;;;0.50;0.50;;;10.30;99.90;;;;;;5067820;28;20052;-73
2022/09/16 00:59:45;;;;;;;0.70;0.70;;;10.30;99.90;;;;;;5050811;28;20037;-73
2022/09/16 01:02:19;;;;;;;0.50;0.50;;;10.30;99.90;;;;;;5064902;28;20048;-75
2022/09/16 01:05:06;;;;;;;0.50;0.50;;;10.20;99.90;;;;;;5075577;28;20460;-74
2022/09/16 01:07:39;;;;;;;0.35;0.35;;;10.20;99.90;;;;;;5075098;28;20059;-74
2022/09/16 01:10:05;;;;;;;0.50;0.50;;;10.30;99.90;;;;;;5070674;28;20416;-76
2022/09/16 01:12:33;;;;;;;0.30;0.30;;;10.30;99.90;;;;;;5063543;28;20055;-75
2022/09/16 01:15:01;;;;;;;0.80;0.80;;;10.30;99.90;;;;;;5059966;28;20049;-76
2022/09/16 01:17:53;;;;;;;0.50;0.50;;;10.30;99.90;;;;;;5084307;28;20040;-74
2022/09/16 01:20:37;;;;;;;0.60;0.60;;;10.20;99.90;;;;;;5060599;28;20040;-74
2022/09/16 01:23:50;;;;;;;0.50;0.50;;;10.20;99.90;;;;;;5071898;28;20055;-73
2022/09/16 01:26:24;;;;;;;;;;;10.20;99.90;;;;;;5073393;28;20117;-74
2022/09/16 01:29:06;;;;;;;0.40;0.40;;;10.20;99.90;;;;;;5074371;28;19965;-75
2022/09/16 01:31:43;;;;;;;0.40;0.40;;;10.20;99.90;;;;;;5087168;28;20032;-75
2022/09/16 01:34:14;;;;;;;0.60;0.60;;;10.10;99.90;;;;;;5072155;28;20040;-78
2022/09/16 01:36:50;;;;;;;0.47;0.47;;;10.10;99.90;;;;;;5088326;28;20079;-74
2022/09/16 01:39:41;;;;;;;0.40;0.40;;;10.10;99.90;;;;;;5070805;28;20179;-74
2022/09/16 01:42:16;;;;;;;0.60;0.60;;;10.10;99.90;;;;;;5063827;28;20060;-76
2022/09/16 01:44:52;;;;;;;0.50;0.50;;;10.10;99.90;;;;;;5073433;28;20102;-74
2022/09/16 01:47:49;;;;;;;0.45;0.45;;;10.20;99.90;;;;;;5072905;28;20140;-74
2022/09/16 01:50:25;;;;;;;0.55;0.55;;;10.20;99.90;;;;;;5067895;28;20128;-76
2022/09/16 01:53:02;;;;;;;0.50;0.50;;;10.30;99.90;;;;;;5072475;28;20134;-76
2022/09/16 01:55:39;;;;;;;0.47;0.47;;;10.40;99.90;;;;;;5063817;28;20097;-76
2022/09/16 01:58:25;;;;;;;0.45;0.45;;;10.40;99.90;;;;;;5065961;28;20048;-74
2022/09/16 02:00:56;;;;;;;0.55;0.55;;;10.40;99.90;;;;;;5057778;28;20090;-75
2022/09/16 02:03:28;;;;;;;0.50;0.50;;;10.50;99.90;;;;;;5068883;28;20056;-74
2022/09/16 02:06:02;;;;;;;0.43;0.43;;;10.50;99.90;;;;;;5094070;28;20076;-77
2022/09/16 02:08:43;;;;;;;0.45;0.45;;;10.50;99.90;;;;;;5076534;28;20087;-76
2022/09/16 02:11:13;;;;;;;0.43;0.43;;;10.50;99.90;;;;;;5061919;28;20440;-77
2022/09/16 02:13:42;;;;;;;0.50;0.50;;;10.50;99.90;;;;;;5066215;28;20045;-74
2022/09/16 02:16:19;;;;;;;0.40;0.40;;;10.50;99.90;;;;;;5053088;28;20044;-77
2022/09/16 02:18:55;;;;;;;0.43;0.43;;;10.40;99.90;;;;;;5064539;28;20052;-75
2022/09/16 02:21:24;;;;;;;0.43;0.43;;;10.40;99.90;;;;;;5054583;28;20048;-75
2022/09/16 02:23:56;;;;;;;0.50;0.50;;;10.40;99.90;;;;;;5069088;28;20040;-75
2022/09/16 02:26:28;;;;;;;0.50;0.50;;;10.30;99.90;;;;;;5071850;28;20047;-78
2022/09/16 02:28:56;;;;;;;0.40;0.40;;;10.30;99.90;;;;;;5059155;28;20045;-74
2022/09/16 02:31:29;;;;;;;0.60;0.60;;;10.30;99.90;;;;;;5071184;28;20093;-74
2022/09/16 02:34:14;;;;;;;2.58;0.93;;;10.30;99.90;;;;;;5072111;28;20044;-74
2022/09/16 02:36:49;;;;;;;0.40;0.40;;;10.30;99.90;;;;;;5083128;28;20036;-74
2022/09/16 02:39:19;;;;;;;0.50;0.50;;;10.30;99.90;;;;;;5060055;28;20087;-77
2022/09/16 02:41:49;;;;;;;0.45;0.45;;;10.30;99.90;;;;;;5066055;28;20116;-76
2022/09/16 02:44:16;;;;;;;0.52;0.52;;;10.40;99.90;;;;;;5066232;28;20057;-75
2022/09/16 02:47:04;;;;;;;0.52;0.52;;;10.40;99.90;;;;;;5049572;28;20490;-75
2022/09/16 02:49:56;;;;;;;1.10;1.10;;;10.50;99.90;;;;;;5071099;28;20050;-74
2022/09/16 02:52:37;;;;;;;0.50;0.50;;;10.60;99.90;;;;;;5070908;28;20044;-78
2022/09/16 02:55:17;;;;;;;0.50;0.50;;;10.50;99.90;;;;;;5068392;28;20044;-74
2022/09/16 02:57:43;;;;;;;0.43;0.43;;;10.50;99.90;;;;;;5072703;28;20097;-75
2022/09/16 03:00:10;;;;;;;0.50;0.50;;;10.40;99.90;;;;;;5070697;28;20443;-76
2022/09/16 03:02:40;;;;;;;0.50;0.50;;;10.40;99.90;;;;;;5066605;28;20055;-76
2022/09/16 03:05:08;;;;;;;0.57;0.57;;;10.40;99.90;;;;;;5057362;28;20521;-75
2022/09/16 03:07:35;;;;;;;0.50;0.50;;;10.40;99.90;;;;;;5059612;28;20486;-76
2022/09/16 03:10:01;;;;;;;0.50;0.50;;;10.30;99.90;;;;;;5068125;28;20040;-75
2022/09/16 03:12:27;;;;;;;;;;;10.20;99.90;;;;;;5072226;28;20136;-74
2022/09/16 03:14:56;;;;;;;0.40;0.40;;;10.10;99.90;;;;;;5069189;28;19999;-74
2022/09/16 03:17:40;;;;;;;1.23;1.23;;;10.00;99.90;;;;;;5065565;28;20045;-75
2022/09/16 03:20:18;;;;;;;0.50;0.50;;;9.90;99.90;;;;;;5054918;28;20086;-75
2022/09/16 03:22:58;;;;;;;0.50;0.50;;;9.80;99.90;;;;;;5066294;28;20505;-76
2022/09/16 03:25:49;;;;;;;0.57;0.57;;;9.70;99.90;;;;;;5069051;28;20059;-78
2022/09/16 03:28:39;;;;;;;0.52;0.52;;;9.70;99.90;;;;;;5066188;28;20048;-77
2022/09/16 03:31:09;;;;;;;0.73;0.73;;;9.70;99.90;;;;;;5087782;28;20129;-73
2022/09/16 03:33:51;;;;;;;0.30;0.30;;;9.60;99.90;;;;;;5091512;28;20055;-73
2022/09/16 03:36:23;;;;;;;0.60;0.60;;;9.60;99.90;;;;;;5085763;28;20094;-75
2022/09/16 03:38:51;;;;;;;0.70;0.70;;;9.60;99.90;;;;;;5069564;28;20047;-76
2022/09/16 03:41:21;;;;;;;0.50;0.50;;;9.50;99.90;;;;;;5071296;28;20427;-75
2022/09/16 03:43:56;;;;;;;;;;;9.50;99.90;;;;;;5071531;28;20040;-76
2022/09/16 03:46:25;;;;;;;0.45;0.45;;;9.50;99.90;;;;;;5062726;28;20297;-73
2022/09/16 03:48:51;;;;;;;0.40;0.40;;;9.50;99.90;;;;;;5065036;28;20048;-73
2022/09/16 03:51:16;;;;;;;0.50;0.50;;;9.50;99.90;;;;;;5059585;28;20041;-75
2022/09/16 03:53:42;;;;;;;0.50;0.50;;;9.60;99.90;;;;;;5086670;28;20504;-78
2022/09/16 03:56:08;;;;;;;0.50;0.50;;;9.50;99.90;;;;;;5071227;28;20049;-77
2022/09/16 03:58:34;;;;;;;0.60;0.60;;;9.50;99.90;;;;;;5068055;28;20055;-73
2022/09/16 04:01:02;;;;;;;1.23;1.20;;;9.50;99.90;;;;;;5050718;28;20044;-75
2022/09/16 04:03:30;;;;;;;0.50;0.50;;;9.40;99.90;;;;;;5066132;28;20087;-75
2022/09/16 04:05:56;;;;;;;0.50;0.50;;;9.40;99.90;;;;;;5073827;28;20057;-76
2022/09/16 04:08:22;;;;;;;0.40;0.40;;;9.40;99.90;;;;;;5067732;28;20044;-76
2022/09/16 04:10:56;;;;;;;0.50;0.50;;;9.50;99.90;;;;;;5049016;28;20055;-75
2022/09/16 04:13:23;;;;;;;0.50;0.50;;;9.50;99.90;;;;;;5069690;28;20044;-73
2022/09/16 04:15:49;;;;;;;0.50;0.50;;;9.50;99.90;;;;;;5060176;28;20041;-78
2022/09/16 04:18:20;;;;;;;0.50;0.50;;;9.40;99.90;;;;;;5072270;28;20036;-77
2022/09/16 04:20:46;;;;;;;0.50;0.50;;;9.40;99.90;;;;;;5053382;28;20386;-76
2022/09/16 04:23:16;;;;;;;0.40;0.40;;;9.40;99.90;;;;;;5068358;28;20037;-74
2022/09/16 04:25:42;;;;;;;0.52;0.52;;;9.30;99.90;;;;;;5064129;28;20490;-76
2022/09/16 04:28:08;;;;;;;0.50;0.50;;;9.30;99.90;;;;;;5055183;28;20532;-75
2022/09/16 04:30:35;;;;;;;0.43;0.43;;;9.20;99.90;;;;;;5069870;28;20044;-75
2022/09/16 04:33:01;;;;;;;0.50;0.50;;;9.30;99.90;;;;;;5070744;28;20470;-77
2022/09/16 04:35:26;;;;;;;0.43;0.43;;;9.20;99.90;;;;;;5058435;28;20098;-75
2022/09/16 04:37:58;;;;;;;0.52;0.52;;;9.20;99.90;;;;;;5051148;28;20466;-75
2022/09/16 04:40:23;;;;;;;0.45;0.45;;;9.20;99.90;;;;;;5051704;28;20135;-77
2022/09/16 04:42:50;;;;;;;0.60;0.60;;;9.30;99.90;;;;;;5052943;28;20133;-78
2022/09/16 04:45:16;;;;;;;0.50;0.50;;;9.30;99.90;;;;;;5069046;28;20075;-76
2022/09/16 04:47:42;;;;;;;0.43;0.43;;;9.40;99.90;;;;;;5067018;28;20037;-78
2022/09/16 04:50:09;;;;;;;0.40;0.40;;;9.50;99.90;;;;;;5070472;28;20531;-76
2022/09/16 04:52:36;;;;;;;0.70;0.70;;;9.60;99.90;;;;;;5060075;28;20053;-75
2022/09/16 04:55:01;;;;;;;0.40;0.40;;;9.70;99.90;;;;;;5065973;28;20464;-75
2022/09/16 04:57:32;;;;;;;0.50;0.50;;;9.80;99.90;;;;;;5050741;28;20076;-77
2022/09/16 04:59:58;;;;;;;0.47;0.47;;;9.90;99.90;;;;;;5054505;28;20045;-75
2022/09/16 05:02:23;;;;;;;0.50;0.50;;;9.90;99.90;;;;;;5070558;28;20098;-75
2022/09/16 05:04:49;;;;;;;0.50;0.50;;;9.70;99.90;;;;;;5078191;28;20080;-75
2022/09/16 05:07:15;;;;;;;0.50;0.50;;;9.70;99.90;;;;;;5069219;28;20044;-75
2022/09/16 05:09:40;;;;;;;0.50;0.50;;;9.70;99.90;;;;;;5054600;28;20052;-76
2022/09/16 05:12:07;;;;;;;0.80;0.80;;;9.50;99.90;;;;;;5053731;28;20550;-76
2022/09/16 05:14:33;;;;;;;0.30;0.30;;;9.50;99.90;;;;;;5062869;28;20089;-75
2022/09/16 05:16:58;;;;;;;0.60;0.60;;;9.40;99.90;;;;;;5047579;28;20115;-78
2022/09/16 05:19:24;;;;;;;0.45;0.45;;;9.30;99.90;;;;;;5066027;28;20053;-76
2022/09/16 05:21:52;;;;;;;0.47;0.47;;;9.30;99.90;;;;;;5056742;28;20044;-79
2022/09/16 05:24:17;;;;;;;0.40;0.40;;;9.30;99.90;;;;;;5075635;28;20077;-79
2022/09/16 05:26:43;;;;;;;0.40;0.40;;;9.20;99.90;;;;;;5060854;28;20090;-77
2022/09/16 05:29:16;;;;;;;0.50;0.50;;;9.20;99.90;;;;;;5076406;28;20037;-78
2022/09/16 05:31:46;;;;;;;0.45;0.45;;;9.20;99.90;;;;;;5033393;28;20037;-76
2022/09/16 05:34:13;;;;;;;0.60;0.60;;;9.20;99.90;;;;;;5045457;28;20041;-76
2022/09/16 05:36:38;;;;;;;0.50;0.50;;;9.30;99.90;;;;;;5073257;28;20059;-76
2022/09/16 05:39:05;;;;;;;0.52;0.52;;;9.40;99.90;;;;;;5038086;28;20040;-76
2022/09/16 05:41:31;;;;;;;0.60;0.60;;;9.50;99.90;;;;;;5072529;28;20397;-76
2022/09/16 05:43:59;;;;;;;0.40;0.40;;;9.50;99.90;;;;;;5079686;28;20029;-76
2022/09/16 05:46:25;;;;;;;0.50;0.50;;;9.50;99.90;;;;;;5036818;28;20191;-76
2022/09/16 05:48:52;;;;;;;0.40;0.40;;;9.50;99.90;;;;;;5026707;28;20047;-77
2022/09/16 05:51:24;;;;;;;0.50;0.50;;;9.50;99.90;;;;;;5071133;28;20127;-77
2022/09/16 05:53:51;;;;;;;0.60;0.60;;;9.50;99.90;;;;;;5043286;28;20033;-78
2022/09/16 05:56:20;;;;;;;0.70;0.70;;;9.50;99.90;;;;;;5075390;28;20469;-76
2022/09/16 05:58:46;;;;;;;0.50;0.50;;;9.50;99.90;;;;;;5083728;28;20044;-76
2022/09/16 06:01:14;;;;;;;;;;;9.60;99.90;;;;;;5077422;28;20137;-75
2022/09/16 06:03:41;;;;;;;0.60;0.60;;;9.60;99.90;;;;;;5072264;28;19921;-76
2022/09/16 06:06:25;;;;;;;0.57;0.57;;;9.70;99.90;;;;;;5072168;28;20044;-75
2022/09/16 06:08:57;;;;;;;0.50;0.50;;;9.70;99.90;;;;;;5082243;28;20032;-76
2022/09/16 06:11:24;;;;;;;2.65;1.35;;;9.90;99.90;;;;;;5060601;28;20041;-76
2022/09/16 06:13:55;;;;;;;0.40;0.40;;;9.90;99.90;;;;;;5074608;28;20043;-76
2022/09/16 06:16:26;;;;;;;0.50;0.50;;;10.00;99.90;;;;;;5070435;28;20451;-76
2022/09/16 06:18:56;;;;;;;1.17;1.17;;;10.00;99.90;;;;;;5052785;28;20120;-77
2022/09/16 06:21:22;;;;;;;0.50;0.50;;;10.00;99.90;;;;;;5055904;28;20478;-77
2022/09/16 06:23:50;;;;;;;0.40;0.40;;;10.00;99.90;;;;;;5071616;28;20033;-75
2022/09/16 06:26:19;;;;;;;0.60;0.60;;;10.10;99.90;;;;;;5058792;28;20108;-75
2022/09/16 06:28:47;;;;;;;0.45;0.45;;;10.20;99.90;;;;;;5070949;28;20052;-75
2022/09/16 06:31:16;;;;;;;0.55;0.55;;;10.30;99.90;;;;;;5067932;28;20047;-74
2022/09/16 06:33:43;;;;;;;0.70;0.70;;;10.30;99.90;;;;;;5059394;28;20587;-77
2022/09/16 06:36:15;;;;;;;0.40;0.40;;;10.40;99.90;;;;;;5053468;28;20063;-78
2022/09/16 06:38:41;;;;;;;0.50;0.50;;;10.50;99.90;;;;;;5070467;28;20032;-77
2022/09/16 06:41:08;;;;;;;0.32;0.32;;;10.60;99.90;;;;;;5086206;28;20393;-75
2022/09/16 06:43:35;;;;;;;0.43;0.43;;;10.60;99.90;;;;;;5064788;28;20462;-78
2022/09/16 06:46:04;;;;;;;1.27;1.23;;;10.80;99.90;;;;;;5075839;28;20076;-78
2022/09/16 06:48:35;;;;;;;0.50;0.50;;;10.80;99.90;;;;;;5092175;28;20119;-76
2022/09/16 06:51:06;;;;;;;0.85;0.85;;;11.00;99.90;;;;;;5059486;28;20032;-76
2022/09/16 06:53:33;;;;;;;0.50;0.50;;;11.00;99.90;;;;;;5065120;28;20048;-74
2022/09/16 06:56:07;;;;;;;0.45;0.45;;;11.20;99.90;;;;;;5065050;28;20127;-74
2022/09/16 06:58:34;;;;;;;0.50;0.50;;;11.30;99.90;;;;;;5071166;28;20118;-77
2022/09/16 07:01:10;;;;;;;0.43;0.43;;;11.50;99.90;;;;;;5084806;28;20132;-77
2022/09/16 07:03:41;;;;;;;0.50;0.50;;;11.80;99.90;;;;;;5071433;28;20118;-75
2022/09/16 07:06:08;;;;;;;0.85;0.80;;;12.10;99.90;;;;;;5070770;28;20072;-78
2022/09/16 07:08:36;;;;;;;0.40;0.40;;;12.10;99.90;;;;;;5070877;28;20032;-79
2022/09/16 07:11:17;;;;;;;0.50;0.50;;;12.00;99.90;;;;;;5071912;28;20099;-79
2022/09/16 07:13:45;;;;;;;1.33;0.45;;;11.90;99.90;;;;;;5055649;28;20065;-76
2022/09/16 07:16:16;;;;;;;0.50;0.50;;;11.90;99.90;;;;;;5072231;28;20055;-76
2022/09/16 07:18:43;;;;;;;0.40;0.40;;;11.90;99.90;;;;;;5074027;28;20089;-73
2022/09/16 07:21:28;;;;;;;0.40;0.40;;;11.80;99.90;;;;;;5070493;28;20567;-75
2022/09/16 07:23:59;;;;;;;0.50;0.50;;;11.90;99.90;;;;;;5071015;28;20063;-74
2022/09/16 07:26:28;;;;;;;0.82;0.82;;;11.90;99.90;;;;;;5071807;28;20056;-78
2022/09/16 07:28:58;;;;;;;0.40;0.40;;;12.10;99.90;;;;;;5083135;28;20490;-75
2022/09/16 07:31:27;;;;;;;0.40;0.40;;;12.20;99.90;;;;;;5082977;28;20384;-76
2022/09/16 07:33:56;;;;;;;0.30;0.30;;;12.30;99.90;;;;;;5052921;28;20076;-75
2022/09/16 07:36:24;;;;;;;0.40;0.40;;;12.40;99.90;;;;;;5076901;28;20486;-76
2022/09/16 07:38:51;;;;;;;0.82;0.82;;;12.40;99.90;;;;;;5068392;28;20052;-75
2022/09/16 07:41:29;;;;;;;0.40;0.40;;;12.40;99.90;;;;;;5047503;28;20098;-73
2022/09/16 07:43:58;;;;;;;0.43;0.43;;;12.30;99.90;;;;;;5076303;28;20049;-75
2022/09/16 07:46:26;;;;;;;2.83;1.65;;;12.30;99.90;;;;;;5053305;28;20127;-73
2022/09/16 07:48:53;;;;;;;0.73;0.73;;;12.40;99.90;;;;;;5075782;28;20040;-73
2022/09/16 07:51:20;;;;;;;0.60;0.60;;;12.50;99.90;;;;;;5053420;28;20037;-75
2022/09/16 07:53:47;;;;;;;0.50;0.50;;;12.60;99.90;;;;;;5062504;28;20110;-76
2022/09/16 07:56:18;;;;;;;0.32;0.32;;;12.80;99.90;;;;;;5064184;28;20040;-77
2022/09/16 07:58:44;;;;;;;0.30;0.30;;;13.10;99.90;;;;;;5053738;28;20123;-75
2022/09/16 08:01:11;;;;;;;0.30;0.30;;;13.30;99.90;;;;;;5052771;28;20049;-75
2022/09/16 08:03:39;;;;;;;0.30;0.30;;;13.40;99.90;;;;;;5062717;28;20055;-74
2022/09/16 08:06:08;;;;;;;0.40;0.40;;;13.30;99.90;;;;;;5065883;28;20113;-75
2022/09/16 08:08:35;;;;;;;0.38;0.38;;;13.20;99.90;;;;;;5070243;28;20484;-73
2022/09/16 08:11:02;;;;;;;0.40;0.40;;;13.10;99.90;;;;;;5058196;28;20098;-73
2022/09/16 08:13:31;;;;;;;0.40;0.40;;;13.10;99.90;;;;;;5044637;28;20519;-74
2022/09/16 08:16:06;;;;;;;0.40;0.40;;;13.20;99.90;;;;;;5058954;28;20048;-74
2022/09/16 08:18:31;;;;;;;0.30;0.30;;;13.40;99.90;;;;;;5046855;28;20119;-74
2022/09/16 08:21:00;;;;;;;0.30;0.30;;;13.50;99.90;;;;;;5064803;28;20115;-73
2022/09/16 08:23:25;;;;;;;0.30;0.30;;;13.60;99.90;;;;;;5061869;28;20170;-76
2022/09/16 08:25:58;;;;;;;0.55;0.55;;;13.60;99.90;;;;;;5066064;28;20433;-74
2022/09/16 08:28:25;;;;;;;0.28;0.28;;;13.80;99.90;;;;;;5068959;28;20044;-75
2022/09/16 08:30:53;;;;;;;0.32;0.32;;;13.90;99.90;;;;;;5050914;28;20036;-75
2022/09/16 08:33:22;;;;;;;0.30;0.30;;;14.00;99.90;;;;;;5066220;28;20436;-75
2022/09/16 08:35:56;;;;;;;0.32;0.32;;;14.10;99.90;;;;;;5048789;28;20125;-72
2022/09/16 08:38:22;;;;;;;10.43;3.50;;;14.20;99.90;;;;;;5074331;28;20040;-75
2022/09/16 08:40:48;;;;;;;0.38;0.38;;;14.40;99.90;;;;;;5068398;28;20098;-74
2022/09/16 08:43:38;;;;;;;0.35;0.35;;;14.40;99.90;;;;;;5068153;28;20041;-73
2022/09/16 08:46:30;;;;;;;0.30;0.30;;;14.60;99.90;;;;;;5062034;28;20060;-75
2022/09/16 08:49:15;;;;;;;0.40;0.40;;;14.80;99.90;;;;;;5057381;28;20037;-75
2022/09/16 08:51:41;;;;;;;0.38;0.38;;;14.90;99.90;;;;;;5070497;28;20080;-75
2022/09/16 08:54:13;;;;;;;0.45;0.45;;;15.00;99.90;;;;;;5066941;28;20072;-75
2022/09/16 08:56:39;;;;;;;0.35;0.35;;;15.00;99.90;;;;;;5068536;28;20071;-72
2022/09/16 08:59:12;;;;;;;0.47;0.47;;;15.10;99.90;;;;;;5049783;28;20084;-76
2022/09/16 09:01:43;;;;;;;0.85;0.85;;;15.20;99.90;;;;;;5066681;28;20497;-74
2022/09/16 09:04:11;;;;;;;0.32;0.32;;;15.20;99.90;;;;;;5069440;28;20430;-74
2022/09/16 09:06:43;;;;;;;0.40;0.40;;;15.20;99.90;;;;;;5045352;28;20808;-74
2022/09/16 09:09:27;;;;;;;0.40;0.40;;;15.10;99.90;;;;;;5074657;28;20167;-72
2022/09/16 09:12:20;;;;;;;0.45;0.45;;;15.10;99.90;;;;;;5054026;28;20071;-73
2022/09/16 09:15:18;;;;;;;0.40;0.40;;;15.30;99.90;;;;;;5052757;28;20451;-75
2022/09/16 09:18:08;;;;;;;0.43;0.43;;;15.50;99.90;;;;;;5069144;28;20145;-74
2022/09/16 09:20:43;;;;;;;0.35;0.35;;;15.30;99.90;;;;;;5060570;28;20616;-74
2022/09/16 09:23:39;;;;;;;0.30;0.30;;;15.00;99.90;;;;;;5075933;28;20058;-75
2022/09/16 09:26:56;;;;;;;0.50;0.50;;;14.90;99.90;;;;;;5065465;28;20086;-75
2022/09/16 09:29:56;;;;;;;1.38;1.27;;;15.00;99.90;;;;;;5055461;28;20056;-76
2022/09/16 09:32:28;;;;;;;;;;;15.10;99.90;;;;;;5065505;28;20146;-76
2022/09/16 09:35:06;;;;;;;0.40;0.40;;;15.20;99.90;;;;;;5052959;28;19916;-76
2022/09/16 09:37:48;;;;;;;2.05;0.60;;;15.20;99.90;;;;;;5054462;28;20060;-75
2022/09/16 09:40:33;;;;;;;0.40;0.40;;;15.30;99.90;;;;;;5066628;28;20087;-75
2022/09/16 09:43:19;;;;;;;2.65;0.40;;;15.40;99.90;;;;;;5082634;28;20044;-76
2022/09/16 09:46:11;;;;;;;2.10;1.95;;;15.70;99.90;;;;;;5072864;28;20163;-79
2022/09/16 09:48:50;;;;;;;0.35;0.35;;;15.70;99.90;;;;;;5070130;28;20489;-76
2022/09/16 09:51:30;;;;;;;0.30;0.30;;;13.70;99.90;;;;;;5062236;28;20484;-73
2022/09/16 09:54:13;;;;;;;0.70;0.70;;;12.30;99.90;;;;;;5055754;28;20044;-75
2022/09/16 09:56:44;;;;;;;0.40;0.40;;;11.60;99.90;;;;;;5072758;28;20374;-75
2022/09/16 09:59:16;;;;;;;0.40;0.40;;;11.20;99.90;;;;;;5074837;28;20040;-75
2022/09/16 10:01:43;;;;;;;0.50;0.50;;;11.10;99.90;;;;;;5073854;28;20037;-76
2022/09/16 10:04:14;;;;;;;0.35;0.35;;;11.20;99.90;;;;;;5062409;28;20049;-77
2022/09/16 10:06:41;;;;;;;0.50;0.50;;;11.30;99.90;;;;;;5068520;28;20485;-74
2022/09/16 10:09:12;;;;;;;0.57;0.57;;;11.50;99.90;;;;;;5067347;28;20036;-76
2022/09/16 10:11:56;;;;;;;0.50;0.50;;;11.70;99.90;;;;;;5054262;28;20048;-73
2022/09/16 10:14:34;;;;;;;0.40;0.40;;;12.00;99.90;;;;;;5071997;28;20045;-76
2022/09/16 10:17:03;;;;;;;0.32;0.32;;;12.50;99.90;;;;;;5098923;28;20054;-76
2022/09/16 10:19:31;;;;;;;0.40;0.40;;;12.90;99.90;;;;;;5053430;28;20478;-75
2022/09/16 10:22:21;;;;;;;0.50;0.50;;;13.40;99.90;;;;;;5026614;28;20067;-75
2022/09/16 10:24:53;;;;;;;0.40;0.40;;;13.70;99.90;;;;;;5083832;28;20505;-76
2022/09/16 10:27:35;;;;;;;0.60;0.60;;;14.00;99.90;;;;;;5070658;28;20044;-76
2022/09/16 10:30:22;;;;;;;0.40;0.40;;;14.20;99.90;;;;;;5069347;28;20044;-75
2022/09/16 10:32:54;;;;;;;;;;;14.50;99.90;;;;;;5048990;28;20028;-73
2022/09/16 10:35:26;;;;;;;0.30;0.30;;;14.70;99.90;;;;;;5092641;28;19916;-74
2022/09/16 10:37:54;;;;;;;0.85;0.85;;;14.90;99.90;;;;;;5071885;28;20044;-75
2022/09/16 10:40:22;;;;;;;0.40;0.40;;;14.60;99.90;;;;;;5068456;28;20041;-74
2022/09/16 10:43:00;;;;;;;0.40;0.40;;;14.10;99.90;;;;;;5065917;28;20076;-73
2022/09/16 10:45:29;;;;;;;1.75;1.00;;;13.60;99.90;;;;;;5078962;28;20051;-76
2022/09/16 10:48:03;;;;;;;0.38;0.38;;;13.50;99.90;;;;;;5078169;28;20080;-74
2022/09/16 10:50:29;;;;;;;0.43;0.43;;;13.80;99.90;;;;;;5079102;28;20040;-76
2022/09/16 10:52:55;;;;;;;;;;;14.20;99.90;;;;;;5061789;28;20492;-77
2022/09/16 10:55:28;;;;;;;0.32;0.32;;;14.60;99.90;;;;;;5050130;28;19924;-73
2022/09/16 10:58:15;;;;;;;0.32;0.32;;;15.00;99.90;;;;;;5036708;28;20045;-74
2022/09/16 11:00:59;;;;;;;;;;;15.30;99.90;;;;;;5071090;28;20509;-76
2022/09/16 11:03:45;;;;;;;0.30;0.30;;;15.60;99.90;;;;;;5071298;28;19924;-76
2022/09/16 11:07:00;;;;;;;0.50;0.50;;;15.90;99.90;;;;;;5080470;28;20058;-75
2022/09/16 11:10:05;;;;;;;0.30;0.30;;;15.70;99.90;;;;;;5058890;28;20432;-75
2022/09/16 11:12:42;;;;;;;0.40;0.40;;;14.70;99.90;;;;;;5015365;28;20056;-76
2022/09/16 11:15:31;;;;;;;0.45;0.45;;;13.80;99.90;;;;;;5067157;28;20131;-75
2022/09/16 11:18:09;;;;;;;0.43;0.43;;;13.50;99.90;;;;;;5067566;28;20044;-74
2022/09/16 11:20:54;;;;;;;1.38;1.30;;;13.40;99.90;;;;;;5074098;28;20040;-75
2022/09/16 11:23:26;;;;;;;0.40;0.40;;;13.60;99.90;;;;;;5057057;28;20059;-75
2022/09/16 11:26:18;;;;;;;0.40;0.40;;;14.00;99.90;;;;;;5067363;28;20124;-74
2022/09/16 11:29:08;;;;;;;0.40;0.40;;;14.30;99.90;;;;;;5064743;28;20044;-73
2022/09/16 11:31:58;;;;;;;0.32;0.32;;;14.80;99.90;;;;;;5056135;28;20044;-73
2022/09/16 11:34:49;;;;;;;0.40;0.40;;;15.10;99.90;;;;;;5070992;28;20045;-77
2022/09/16 11:37:46;;;;;;;2.40;1.67;;;15.40;99.90;;;;;;5066169;28;20037;-75
2022/09/16 11:40:38;;;;;;;0.38;0.38;;;15.70;99.90;;;;;;5062835;28;20114;-74
2022/09/16 11:43:27;;;;;;;0.40;0.40;;;15.90;99.90;;;;;;5066190;28;20037;-77
2022/09/16 11:46:22;;;;;;;0.30;0.30;;;16.00;99.90;;;;;;5075960;28;20040;-75
2022/09/16 11:49:10;;;;;;;0.68;0.68;;;16.30;99.90;;;;;;5062213;28;20032;-74
2022/09/16 11:51:54;;;;;;;0.43;0.43;;;16.40;99.90;;;;;;5044124;28;20059;-74
2022/09/16 11:55:03;;;;;;;2.08;1.58;;;16.50;99.90;;;;;;5063798;28;20036;-75
2022/09/16 11:57:34;;;;;;;0.50;0.50;;;16.60;99.90;;;;;;5072532;28;20032;-76
2022/09/16 12:00:08;;;;;;;0.93;0.93;;;16.50;99.90;;;;;;5071603;28;20039;-76
2022/09/16 12:02:35;;;;;;;0.43;0.43;;;16.40;99.90;;;;;;5059410;28;21029;-76
2022/09/16 12:05:06;;;;;;;0.30;0.30;;;16.30;99.90;;;;;;5053157;28;20041;-75
2022/09/16 12:07:41;;;;;;;21.92;1.48;;;16.20;99.90;;;;;;5075995;28;20382;-76
2022/09/16 12:10:22;;;;;;;0.40;0.40;;;16.10;99.90;;;;;;5045719;28;20045;-74
2022/09/16 12:12:59;;;;;;;0.90;0.60;;;16.10;99.90;;;;;;5059571;28;20047;-76
2022/09/16 12:15:39;;;;;;;0.50;0.50;;;16.10;99.90;;;;;;5056509;28;20055;-76
2022/09/16 12:18:36;;;;;;;0.30;0.30;;;16.30;99.90;;;;;;5068437;28;20044;-76
2022/09/16 12:21:08;;;;;;;1.85;1.75;;;16.40;99.90;;;;;;5078901;28;20188;-75
2022/09/16 12:23:41;;;;;;;0.30;0.30;;;16.50;99.90;;;;;;5064619;28;20397;-75
2022/09/16 12:26:20;;;;;;;0.40;0.40;;;16.50;99.90;;;;;;5065664;28;20060;-76
2022/09/16 12:28:55;;;;;;;0.40;0.40;;;16.50;99.90;;;;;;5067588;28;20089;-76
2022/09/16 12:31:33;;;;;;;0.40;0.40;;;16.50;99.90;;;;;;5082280;28;20115;-74
2022/09/16 12:34:43;;;;;;;1.00;0.93;;;16.60;99.90;;;;;;5079726;28;20082;-78
2022/09/16 12:37:35;;;;;;;0.40;0.40;;;16.60;99.90;;;;;;5038013;28;20496;-77
2022/09/16 12:40:04;;;;;;;1.58;1.48;;;16.60;99.90;;;;;;5068089;28;20048;-75
2022/09/16 12:42:44;;;;;;;0.30;0.30;;;16.50;99.90;;;;;;5059300;28;20044;-77
2022/09/16 12:45:51;;;;;;;0.40;0.40;;;16.30;99.90;;;;;;5071255;28;20048;-76
2022/09/16 12:49:10;;;;;;;0.30;0.30;;;16.20;99.90;;;;;;5035574;28;20048;-75
2022/09/16 12:52:08;;;;;;;0.20;0.20;;;16.00;99.90;;;;;;5010828;28;20049;-75
2022/09/16 12:55:17;;;;;;;0.22;0.22;;;15.90;99.90;;;;;;5065508;28;20101;-76
2022/09/16 12:58:03;;;;;;;0.30;0.30;;;15.80;99.90;;;;;;5072114;28;20051;-77
2022/09/16 13:00:40;;;;;;;0.30;0.30;;;15.80;99.90;;;;;;5066580;28;20041;-76
2022/09/16 13:03:14;;;;;;;0.30;0.30;;;15.90;99.90;;;;;;5083367;28;20044;-75
2022/09/16 13:05:50;;;;;;;0.50;0.50;;;15.90;99.90;;;;;;5084670;28;20052;-77
2022/09/16 13:08:28;;;;;;;0.43;0.40;;;15.80;99.90;;;;;;5068068;28;20406;-77
2022/09/16 13:11:04;;;;;;;1.55;1.17;;;15.80;99.90;;;;;;5069712;28;20482;-77
2022/09/16 13:13:45;;;;;;;3.55;1.48;;;15.50;99.90;;;;;;5075532;28;20508;-76
2022/09/16 13:16:11;;;;;;;1.35;1.15;;;14.90;99.90;;;;;;5063746;28;20071;-76
2022/09/16 13:18:45;;;;;;;0.35;0.35;;;14.00;99.90;;;;;;5079635;28;20101;-76
2022/09/16 13:21:30;;;;;;;0.73;0.73;;;13.10;99.90;;;;;;5071317;28;20492;-80
2022/09/16 13:24:11;;;;;;;0.85;0.85;;;12.50;99.90;;;;;;5083989;28;20445;-77
2022/09/16 13:26:42;;;;;;;0.45;0.45;;;12.30;99.90;;;;;;5074629;28;20059;-77